sensor_id;sensor_type;location;lat;lon;timestamp;P1;durP1;ratioP1;P2;durP2;ratioP2
27758;SDS011;15148;48.972;12.794;2023-07-16T00:01:44;7.03;;;4.15;;
27758;SDS011;15148;48.972;12.794;2023-07-16T00:06:46;8.82;;;4.88;;
27758;SDS011;15148;48.972;12.794;2023-07-16T00:11:48;7.22;;;4.90;;
27758;SDS011;15148;48.972;12.794;2023-07-16T00:16:50;7.88;;;4.63;;
27758;SDS011;15148;48.972;12.794;2023-07-16T00:21:52;6.35;;;4.15;;
27758;SDS011;15148;48.972;12.794;2023-07-16T00:26:54;4.88;;;4.20;;
27758;SDS011;15148;48.972;12.794;2023-07-16T00:31:56;7.85;;;4.50;;
27758;SDS011;15148;48.972;12.794;2023-07-16T00:36:58;9.15;;;4.55;;
27758;SDS011;15148;48.972;12.794;2023-07-16T00:42:03;17.23;;;5.38;;
27758;SDS011;15148;48.972;12.794;2023-07-16T00:47:05;5.28;;;4.13;;
27758;SDS011;15148;48.972;12.794;2023-07-16T00:52:08;7.03;;;4.15;;
27758;SDS011;15148;48.972;12.794;2023-07-16T00:57:17;4.80;;;3.78;;
27758;SDS011;15148;48.972;12.794;2023-07-16T01:02:19;6.88;;;3.95;;
27758;SDS011;15148;48.972;12.794;2023-07-16T01:07:21;4.53;;;4.07;;
27758;SDS011;15148;48.972;12.794;2023-07-16T01:12:28;7.13;;;3.97;;
27758;SDS011;15148;48.972;12.794;2023-07-16T01:17:31;4.30;;;3.80;;
27758;SDS011;15148;48.972;12.794;2023-07-16T01:22:35;4.97;;;3.85;;
27758;SDS011;15148;48.972;12.794;2023-07-16T01:28:05;5.18;;;3.70;;
27758;SDS011;15148;48.972;12.794;2023-07-16T01:38:11;11.20;;;5.28;;
27758;SDS011;15148;48.972;12.794;2023-07-16T01:43:15;7.63;;;4.20;;
27758;SDS011;15148;48.972;12.794;2023-07-16T01:48:51;7.68;;;4.72;;
27758;SDS011;15148;48.972;12.794;2023-07-16T01:53:45;6.35;;;4.45;;
27758;SDS011;15148;48.972;12.794;2023-07-16T01:58:47;6.43;;;5.13;;
27758;SDS011;15148;48.972;12.794;2023-07-16T02:03:51;6.18;;;5.03;;
27758;SDS011;15148;48.972;12.794;2023-07-16T02:08:53;5.10;;;4.68;;
27758;SDS011;15148;48.972;12.794;2023-07-16T02:13:55;7.00;;;4.32;;
27758;SDS011;15148;48.972;12.794;2023-07-16T02:18:57;5.38;;;4.10;;
27758;SDS011;15148;48.972;12.794;2023-07-16T02:23:59;6.43;;;4.47;;
27758;SDS011;15148;48.972;12.794;2023-07-16T02:29:01;5.82;;;4.50;;
27758;SDS011;15148;48.972;12.794;2023-07-16T02:34:03;5.85;;;4.40;;
27758;SDS011;15148;48.972;12.794;2023-07-16T02:39:07;5.68;;;4.68;;
27758;SDS011;15148;48.972;12.794;2023-07-16T02:44:09;7.25;;;4.80;;
27758;SDS011;15148;48.972;12.794;2023-07-16T02:49:10;4.50;;;4.10;;
27758;SDS011;15148;48.972;12.794;2023-07-16T02:54:12;5.18;;;4.05;;
27758;SDS011;15148;48.972;12.794;2023-07-16T02:59:14;4.47;;;4.07;;
27758;SDS011;15148;48.972;12.794;2023-07-16T03:04:16;4.47;;;4.07;;
27758;SDS011;15148;48.972;12.794;2023-07-16T03:09:18;4.53;;;4.03;;
27758;SDS011;15148;48.972;12.794;2023-07-16T03:14:20;8.60;;;5.05;;
27758;SDS011;15148;48.972;12.794;2023-07-16T03:19:22;4.60;;;4.30;;
27758;SDS011;15148;48.972;12.794;2023-07-16T03:24:24;5.13;;;4.18;;
27758;SDS011;15148;48.972;12.794;2023-07-16T03:29:26;4.72;;;4.32;;
27758;SDS011;15148;48.972;12.794;2023-07-16T03:34:29;4.75;;;4.28;;
27758;SDS011;15148;48.972;12.794;2023-07-16T03:39:31;4.60;;;3.42;;
27758;SDS011;15148;48.972;12.794;2023-07-16T03:44:33;4.63;;;3.38;;
27758;SDS011;15148;48.972;12.794;2023-07-16T03:49:37;3.83;;;3.53;;
27758;SDS011;15148;48.972;12.794;2023-07-16T03:54:39;3.80;;;3.50;;
27758;SDS011;15148;48.972;12.794;2023-07-16T03:59:41;5.32;;;3.97;;
27758;SDS011;15148;48.972;12.794;2023-07-16T04:04:43;4.03;;;3.63;;
27758;SDS011;15148;48.972;12.794;2023-07-16T04:09:45;3.67;;;3.38;;
27758;SDS011;15148;48.972;12.794;2023-07-16T04:14:47;3.50;;;3.20;;
27758;SDS011;15148;48.972;12.794;2023-07-16T04:19:49;4.13;;;3.72;;
27758;SDS011;15148;48.972;12.794;2023-07-16T04:24:51;3.83;;;3.42;;
27758;SDS011;15148;48.972;12.794;2023-07-16T04:29:53;5.05;;;3.53;;
27758;SDS011;15148;48.972;12.794;2023-07-16T04:34:55;4.10;;;3.30;;
27758;SDS011;15148;48.972;12.794;2023-07-16T04:39:57;5.78;;;3.85;;
27758;SDS011;15148;48.972;12.794;2023-07-16T04:44:59;4.15;;;3.58;;
27758;SDS011;15148;48.972;12.794;2023-07-16T04:50:01;5.05;;;3.92;;
27758;SDS011;15148;48.972;12.794;2023-07-16T04:55:03;4.72;;;3.60;;
27758;SDS011;15148;48.972;12.794;2023-07-16T05:00:05;3.83;;;3.38;;
27758;SDS011;15148;48.972;12.794;2023-07-16T05:05:08;3.53;;;3.22;;
27758;SDS011;15148;48.972;12.794;2023-07-16T05:10:10;3.60;;;3.15;;
27758;SDS011;15148;48.972;12.794;2023-07-16T05:15:12;7.25;;;3.30;;
27758;SDS011;15148;48.972;12.794;2023-07-16T05:20:14;4.68;;;3.40;;
27758;SDS011;15148;48.972;12.794;2023-07-16T05:25:16;5.00;;;4.00;;
27758;SDS011;15148;48.972;12.794;2023-07-16T05:30:18;5.32;;;4.38;;
27758;SDS011;15148;48.972;12.794;2023-07-16T05:35:20;4.90;;;4.13;;
27758;SDS011;15148;48.972;12.794;2023-07-16T05:40:21;5.20;;;4.25;;
27758;SDS011;15148;48.972;12.794;2023-07-16T05:45:23;5.22;;;3.72;;
27758;SDS011;15148;48.972;12.794;2023-07-16T05:50:25;5.40;;;4.00;;
27758;SDS011;15148;48.972;12.794;2023-07-16T05:55:27;8.82;;;6.45;;
27758;SDS011;15148;48.972;12.794;2023-07-16T06:00:29;5.32;;;4.82;;
27758;SDS011;15148;48.972;12.794;2023-07-16T06:05:31;4.88;;;4.43;;
27758;SDS011;15148;48.972;12.794;2023-07-16T06:10:35;6.97;;;4.68;;
27758;SDS011;15148;48.972;12.794;2023-07-16T06:15:37;7.25;;;6.55;;
27758;SDS011;15148;48.972;12.794;2023-07-16T06:20:42;5.75;;;5.07;;
27758;SDS011;15148;48.972;12.794;2023-07-16T06:25:45;5.10;;;4.70;;
27758;SDS011;15148;48.972;12.794;2023-07-16T06:30:49;5.00;;;4.50;;
27758;SDS011;15148;48.972;12.794;2023-07-16T06:35:55;5.85;;;4.22;;
27758;SDS011;15148;48.972;12.794;2023-07-16T06:40:56;7.68;;;4.40;;
27758;SDS011;15148;48.972;12.794;2023-07-16T06:45:58;4.80;;;3.63;;
27758;SDS011;15148;48.972;12.794;2023-07-16T06:51:00;3.75;;;3.38;;
27758;SDS011;15148;48.972;12.794;2023-07-16T06:56:02;3.42;;;2.85;;
27758;SDS011;15148;48.972;12.794;2023-07-16T07:01:04;3.65;;;2.47;;
27758;SDS011;15148;48.972;12.794;2023-07-16T07:06:06;4.03;;;2.78;;
27758;SDS011;15148;48.972;12.794;2023-07-16T07:11:08;3.25;;;2.85;;
27758;SDS011;15148;48.972;12.794;2023-07-16T07:16:10;4.00;;;2.97;;
27758;SDS011;15148;48.972;12.794;2023-07-16T07:21:12;3.17;;;2.28;;
27758;SDS011;15148;48.972;12.794;2023-07-16T07:26:15;3.95;;;2.40;;
27758;SDS011;15148;48.972;12.794;2023-07-16T07:31:17;3.42;;;2.47;;
27758;SDS011;15148;48.972;12.794;2023-07-16T07:36:19;3.67;;;2.53;;
27758;SDS011;15148;48.972;12.794;2023-07-16T07:41:21;2.30;;;2.10;;
27758;SDS011;15148;48.972;12.794;2023-07-16T07:46:23;3.28;;;2.00;;
27758;SDS011;15148;48.972;12.794;2023-07-16T07:51:25;3.08;;;1.90;;
27758;SDS011;15148;48.972;12.794;2023-07-16T07:56:27;2.42;;;1.83;;
27758;SDS011;15148;48.972;12.794;2023-07-16T08:01:28;4.03;;;2.40;;
27758;SDS011;15148;48.972;12.794;2023-07-16T08:06:31;3.60;;;2.03;;
27758;SDS011;15148;48.972;12.794;2023-07-16T08:11:33;3.70;;;2.17;;
27758;SDS011;15148;48.972;12.794;2023-07-16T08:16:35;2.33;;;2.13;;
27758;SDS011;15148;48.972;12.794;2023-07-16T08:21:37;2.60;;;2.10;;
27758;SDS011;15148;48.972;12.794;2023-07-16T08:26:39;2.50;;;1.88;;
27758;SDS011;15148;48.972;12.794;2023-07-16T08:31:41;2.05;;;1.85;;
27758;SDS011;15148;48.972;12.794;2023-07-16T08:36:43;3.55;;;2.20;;
27758;SDS011;15148;48.972;12.794;2023-07-16T08:41:45;2.42;;;2.22;;
27758;SDS011;15148;48.972;12.794;2023-07-16T08:46:48;2.88;;;2.08;;
27758;SDS011;15148;48.972;12.794;2023-07-16T08:51:50;2.30;;;2.10;;
27758;SDS011;15148;48.972;12.794;2023-07-16T08:56:55;5.03;;;2.45;;
27758;SDS011;15148;48.972;12.794;2023-07-16T09:01:58;4.03;;;2.45;;
27758;SDS011;15148;48.972;12.794;2023-07-16T09:07:00;5.18;;;2.50;;
27758;SDS011;15148;48.972;12.794;2023-07-16T09:12:02;3.85;;;2.10;;
27758;SDS011;15148;48.972;12.794;2023-07-16T09:17:04;4.95;;;3.10;;
27758;SDS011;15148;48.972;12.794;2023-07-16T09:22:08;3.22;;;2.72;;
27758;SDS011;15148;48.972;12.794;2023-07-16T09:27:11;3.95;;;2.40;;
27758;SDS011;15148;48.972;12.794;2023-07-16T09:32:13;4.03;;;2.30;;
27758;SDS011;15148;48.972;12.794;2023-07-16T09:37:17;4.95;;;1.80;;
27758;SDS011;15148;48.972;12.794;2023-07-16T09:42:20;4.05;;;2.40;;
27758;SDS011;15148;48.972;12.794;2023-07-16T09:47:25;3.55;;;2.20;;
27758;SDS011;15148;48.972;12.794;2023-07-16T09:52:27;3.13;;;2.53;;
27758;SDS011;15148;48.972;12.794;2023-07-16T09:57:31;2.95;;;2.45;;
27758;SDS011;15148;48.972;12.794;2023-07-16T10:02:36;2.37;;;2.10;;
27758;SDS011;15148;48.972;12.794;2023-07-16T10:07:39;3.03;;;1.80;;
27758;SDS011;15148;48.972;12.794;2023-07-16T10:12:41;5.80;;;5.00;;
27758;SDS011;15148;48.972;12.794;2023-07-16T10:17:49;4.88;;;2.40;;
27758;SDS011;15148;48.972;12.794;2023-07-16T10:22:51;4.35;;;2.35;;
27758;SDS011;15148;48.972;12.794;2023-07-16T10:27:54;8.13;;;3.30;;
27758;SDS011;15148;48.972;12.794;2023-07-16T10:32:56;3.58;;;2.50;;
27758;SDS011;15148;48.972;12.794;2023-07-16T10:37:58;4.95;;;2.63;;
27758;SDS011;15148;48.972;12.794;2023-07-16T10:43:00;3.53;;;2.53;;
27758;SDS011;15148;48.972;12.794;2023-07-16T10:48:02;3.35;;;2.25;;
27758;SDS011;15148;48.972;12.794;2023-07-16T10:53:05;3.58;;;2.30;;
27758;SDS011;15148;48.972;12.794;2023-07-16T10:58:07;4.47;;;2.40;;
27758;SDS011;15148;48.972;12.794;2023-07-16T11:03:09;4.38;;;2.60;;
27758;SDS011;15148;48.972;12.794;2023-07-16T11:08:21;5.22;;;2.75;;
27758;SDS011;15148;48.972;12.794;2023-07-16T11:13:27;5.90;;;2.60;;
27758;SDS011;15148;48.972;12.794;2023-07-16T11:18:30;6.13;;;2.47;;
27758;SDS011;15148;48.972;12.794;2023-07-16T11:23:35;3.53;;;2.63;;
27758;SDS011;15148;48.972;12.794;2023-07-16T11:28:40;4.43;;;2.25;;
27758;SDS011;15148;48.972;12.794;2023-07-16T11:33:43;2.35;;;2.00;;
27758;SDS011;15148;48.972;12.794;2023-07-16T11:38:47;4.20;;;2.25;;
27758;SDS011;15148;48.972;12.794;2023-07-16T11:43:50;4.10;;;3.38;;
27758;SDS011;15148;48.972;12.794;2023-07-16T11:48:52;3.25;;;2.53;;
27758;SDS011;15148;48.972;12.794;2023-07-16T11:53:55;5.45;;;2.42;;
27758;SDS011;15148;48.972;12.794;2023-07-16T11:58:59;4.00;;;2.88;;
27758;SDS011;15148;48.972;12.794;2023-07-16T12:04:02;5.40;;;2.35;;
27758;SDS011;15148;48.972;12.794;2023-07-16T12:09:15;3.28;;;2.35;;
27758;SDS011;15148;48.972;12.794;2023-07-16T12:14:17;3.05;;;2.60;;
27758;SDS011;15148;48.972;12.794;2023-07-16T12:19:19;3.03;;;2.47;;
27758;SDS011;15148;48.972;12.794;2023-07-16T12:24:21;4.13;;;2.50;;
27758;SDS011;15148;48.972;12.794;2023-07-16T12:29:23;3.63;;;2.20;;
27758;SDS011;15148;48.972;12.794;2023-07-16T12:34:25;3.65;;;1.98;;
27758;SDS011;15148;48.972;12.794;2023-07-16T12:39:28;3.47;;;2.47;;
27758;SDS011;15148;48.972;12.794;2023-07-16T12:44:29;4.72;;;2.65;;
27758;SDS011;15148;48.972;12.794;2023-07-16T12:49:31;3.08;;;2.80;;
27758;SDS011;15148;48.972;12.794;2023-07-16T12:54:34;2.75;;;2.55;;
27758;SDS011;15148;48.972;12.794;2023-07-16T12:59:36;2.55;;;2.35;;
27758;SDS011;15148;48.972;12.794;2023-07-16T13:04:38;4.25;;;2.92;;
27758;SDS011;15148;48.972;12.794;2023-07-16T13:09:40;6.18;;;2.45;;
27758;SDS011;15148;48.972;12.794;2023-07-16T13:14:42;2.65;;;2.45;;
27758;SDS011;15148;48.972;12.794;2023-07-16T13:19:44;6.38;;;3.10;;
27758;SDS011;15148;48.972;12.794;2023-07-16T13:24:48;3.03;;;2.80;;
27758;SDS011;15148;48.972;12.794;2023-07-16T13:29:50;2.63;;;2.40;;
27758;SDS011;15148;48.972;12.794;2023-07-16T13:34:53;3.45;;;2.90;;
27758;SDS011;15148;48.972;12.794;2023-07-16T13:39:55;3.30;;;3.00;;
27758;SDS011;15148;48.972;12.794;2023-07-16T13:44:57;3.63;;;2.67;;
27758;SDS011;15148;48.972;12.794;2023-07-16T13:49:59;3.67;;;3.03;;
27758;SDS011;15148;48.972;12.794;2023-07-16T13:55:01;2.83;;;2.35;;
27758;SDS011;15148;48.972;12.794;2023-07-16T14:00:05;2.90;;;2.17;;
27758;SDS011;15148;48.972;12.794;2023-07-16T14:05:11;4.00;;;2.42;;
27758;SDS011;15148;48.972;12.794;2023-07-16T14:10:13;4.55;;;4.15;;
27758;SDS011;15148;48.972;12.794;2023-07-16T14:15:14;2.88;;;2.55;;
27758;SDS011;15148;48.972;12.794;2023-07-16T14:20:19;2.53;;;2.33;;
27758;SDS011;15148;48.972;12.794;2023-07-16T14:25:22;3.17;;;2.40;;
27758;SDS011;15148;48.972;12.794;2023-07-16T14:30:24;3.35;;;2.42;;
27758;SDS011;15148;48.972;12.794;2023-07-16T14:35:25;2.28;;;2.13;;
27758;SDS011;15148;48.972;12.794;2023-07-16T14:40:37;3.75;;;2.47;;
27758;SDS011;15148;48.972;12.794;2023-07-16T14:45:39;2.50;;;2.30;;
27758;SDS011;15148;48.972;12.794;2023-07-16T14:50:41;4.30;;;2.47;;
27758;SDS011;15148;48.972;12.794;2023-07-16T14:55:50;3.35;;;2.38;;
27758;SDS011;15148;48.972;12.794;2023-07-16T15:00:52;2.58;;;2.25;;
27758;SDS011;15148;48.972;12.794;2023-07-16T15:05:57;4.70;;;2.60;;
27758;SDS011;15148;48.972;12.794;2023-07-16T15:10:59;3.03;;;2.60;;
27758;SDS011;15148;48.972;12.794;2023-07-16T15:16:02;2.65;;;2.45;;
27758;SDS011;15148;48.972;12.794;2023-07-16T15:21:05;3.33;;;2.35;;
27758;SDS011;15148;48.972;12.794;2023-07-16T15:26:07;3.45;;;2.70;;
27758;SDS011;15148;48.972;12.794;2023-07-16T15:31:12;3.42;;;3.13;;
27758;SDS011;15148;48.972;12.794;2023-07-16T15:36:14;2.92;;;2.67;;
27758;SDS011;15148;48.972;12.794;2023-07-16T15:41:17;4.07;;;2.78;;
27758;SDS011;15148;48.972;12.794;2023-07-16T15:46:26;5.53;;;3.15;;
27758;SDS011;15148;48.972;12.794;2023-07-16T15:51:29;3.65;;;2.92;;
27758;SDS011;15148;48.972;12.794;2023-07-16T15:56:31;7.07;;;3.13;;
27758;SDS011;15148;48.972;12.794;2023-07-16T16:01:33;2.67;;;2.47;;
27758;SDS011;15148;48.972;12.794;2023-07-16T16:06:35;3.53;;;3.22;;
27758;SDS011;15148;48.972;12.794;2023-07-16T16:11:40;2.72;;;2.50;;
27758;SDS011;15148;48.972;12.794;2023-07-16T16:16:41;3.35;;;2.80;;
27758;SDS011;15148;48.972;12.794;2023-07-16T16:22:03;5.85;;;3.00;;
27758;SDS011;15148;48.972;12.794;2023-07-16T16:27:06;4.35;;;2.70;;
27758;SDS011;15148;48.972;12.794;2023-07-16T16:32:08;4.28;;;2.90;;
27758;SDS011;15148;48.972;12.794;2023-07-16T16:37:10;4.75;;;3.33;;
27758;SDS011;15148;48.972;12.794;2023-07-16T16:42:12;3.17;;;2.90;;
27758;SDS011;15148;48.972;12.794;2023-07-16T16:47:14;3.28;;;2.95;;
27758;SDS011;15148;48.972;12.794;2023-07-16T16:52:15;3.47;;;3.17;;
27758;SDS011;15148;48.972;12.794;2023-07-16T16:57:17;4.07;;;2.90;;
27758;SDS011;15148;48.972;12.794;2023-07-16T17:02:19;4.03;;;3.08;;
27758;SDS011;15148;48.972;12.794;2023-07-16T17:07:22;3.38;;;3.08;;
27758;SDS011;15148;48.972;12.794;2023-07-16T17:12:24;4.25;;;3.08;;
27758;SDS011;15148;48.972;12.794;2023-07-16T17:17:25;3.60;;;3.20;;
27758;SDS011;15148;48.972;12.794;2023-07-16T17:22:28;6.53;;;3.28;;
27758;SDS011;15148;48.972;12.794;2023-07-16T17:27:30;5.28;;;4.78;;
27758;SDS011;15148;48.972;12.794;2023-07-16T17:32:32;5.30;;;3.13;;
27758;SDS011;15148;48.972;12.794;2023-07-16T17:37:34;3.28;;;2.97;;
27758;SDS011;15148;48.972;12.794;2023-07-16T17:42:36;3.28;;;2.97;;
27758;SDS011;15148;48.972;12.794;2023-07-16T17:47:37;3.83;;;3.03;;
27758;SDS011;15148;48.972;12.794;2023-07-16T17:52:39;5.57;;;3.15;;
27758;SDS011;15148;48.972;12.794;2023-07-16T17:57:41;3.97;;;3.58;;
27758;SDS011;15148;48.972;12.794;2023-07-16T18:02:43;3.47;;;2.90;;
27758;SDS011;15148;48.972;12.794;2023-07-16T18:07:45;3.70;;;3.30;;
27758;SDS011;15148;48.972;12.794;2023-07-16T18:12:47;3.95;;;3.40;;
27758;SDS011;15148;48.972;12.794;2023-07-16T18:17:49;4.90;;;3.00;;
27758;SDS011;15148;48.972;12.794;2023-07-16T18:22:52;3.63;;;3.10;;
27758;SDS011;15148;48.972;12.794;2023-07-16T18:27:54;3.55;;;3.25;;
27758;SDS011;15148;48.972;12.794;2023-07-16T18:32:56;2.72;;;2.53;;
27758;SDS011;15148;48.972;12.794;2023-07-16T18:37:58;3.85;;;3.50;;
27758;SDS011;15148;48.972;12.794;2023-07-16T18:42:59;8.30;;;5.93;;
27758;SDS011;15148;48.972;12.794;2023-07-16T18:48:01;3.50;;;3.20;;
27758;SDS011;15148;48.972;12.794;2023-07-16T18:53:03;3.33;;;3.03;;
27758;SDS011;15148;48.972;12.794;2023-07-16T18:58:06;3.70;;;2.90;;
27758;SDS011;15148;48.972;12.794;2023-07-16T19:03:09;3.88;;;3.55;;
27758;SDS011;15148;48.972;12.794;2023-07-16T19:08:11;3.63;;;3.10;;
27758;SDS011;15148;48.972;12.794;2023-07-16T19:13:13;3.90;;;3.58;;
27758;SDS011;15148;48.972;12.794;2023-07-16T19:18:15;3.85;;;3.40;;
27758;SDS011;15148;48.972;12.794;2023-07-16T19:23:18;3.30;;;3.00;;
27758;SDS011;15148;48.972;12.794;2023-07-16T19:28:20;4.15;;;3.75;;
27758;SDS011;15148;48.972;12.794;2023-07-16T19:33:22;4.13;;;3.58;;
27758;SDS011;15148;48.972;12.794;2023-07-16T19:38:24;3.08;;;2.80;;
27758;SDS011;15148;48.972;12.794;2023-07-16T19:43:26;4.07;;;3.10;;
27758;SDS011;15148;48.972;12.794;2023-07-16T19:48:28;3.55;;;3.20;;
27758;SDS011;15148;48.972;12.794;2023-07-16T19:53:30;6.30;;;3.83;;
27758;SDS011;15148;48.972;12.794;2023-07-16T19:58:33;3.83;;;3.53;;
27758;SDS011;15148;48.972;12.794;2023-07-16T20:03:34;3.55;;;3.25;;
27758;SDS011;15148;48.972;12.794;2023-07-16T20:08:36;3.33;;;3.00;;
27758;SDS011;15148;48.972;12.794;2023-07-16T20:13:38;4.32;;;3.38;;
27758;SDS011;15148;48.972;12.794;2023-07-16T20:18:42;4.32;;;3.92;;
27758;SDS011;15148;48.972;12.794;2023-07-16T20:23:44;4.78;;;3.65;;
27758;SDS011;15148;48.972;12.794;2023-07-16T20:28:45;4.00;;;3.20;;
27758;SDS011;15148;48.972;12.794;2023-07-16T20:33:47;4.18;;;3.78;;
27758;SDS011;15148;48.972;12.794;2023-07-16T20:38:49;3.90;;;3.50;;
27758;SDS011;15148;48.972;12.794;2023-07-16T20:43:51;4.78;;;3.13;;
27758;SDS011;15148;48.972;12.794;2023-07-16T20:48:53;4.32;;;3.60;;
27758;SDS011;15148;48.972;12.794;2023-07-16T20:53:55;4.40;;;4.00;;
27758;SDS011;15148;48.972;12.794;2023-07-16T20:58:57;5.15;;;3.58;;
27758;SDS011;15148;48.972;12.794;2023-07-16T21:03:59;4.05;;;3.60;;
27758;SDS011;15148;48.972;12.794;2023-07-16T21:09:05;5.28;;;3.25;;
27758;SDS011;15148;48.972;12.794;2023-07-16T21:14:07;4.22;;;3.80;;
27758;SDS011;15148;48.972;12.794;2023-07-16T21:19:09;4.75;;;3.80;;
27758;SDS011;15148;48.972;12.794;2023-07-16T21:24:11;5.03;;;3.55;;
27758;SDS011;15148;48.972;12.794;2023-07-16T21:29:13;4.22;;;3.50;;
27758;SDS011;15148;48.972;12.794;2023-07-16T21:34:15;4.05;;;3.70;;
27758;SDS011;15148;48.972;12.794;2023-07-16T21:39:16;3.95;;;3.53;;
27758;SDS011;15148;48.972;12.794;2023-07-16T21:44:19;4.57;;;3.90;;
27758;SDS011;15148;48.972;12.794;2023-07-16T21:49:21;3.70;;;3.38;;
27758;SDS011;15148;48.972;12.794;2023-07-16T21:54:22;3.95;;;3.45;;
27758;SDS011;15148;48.972;12.794;2023-07-16T21:59:26;3.90;;;3.15;;
27758;SDS011;15148;48.972;12.794;2023-07-16T22:04:28;4.97;;;3.70;;
27758;SDS011;15148;48.972;12.794;2023-07-16T22:09:30;3.67;;;3.38;;
27758;SDS011;15148;48.972;12.794;2023-07-16T22:14:32;6.03;;;3.72;;
27758;SDS011;15148;48.972;12.794;2023-07-16T22:19:34;4.38;;;3.65;;
27758;SDS011;15148;48.972;12.794;2023-07-16T22:24:36;4.85;;;3.70;;
27758;SDS011;15148;48.972;12.794;2023-07-16T22:29:38;4.28;;;3.88;;
27758;SDS011;15148;48.972;12.794;2023-07-16T22:34:40;5.53;;;3.80;;
27758;SDS011;15148;48.972;12.794;2023-07-16T22:39:42;4.82;;;3.65;;
27758;SDS011;15148;48.972;12.794;2023-07-16T22:44:44;6.47;;;4.20;;
27758;SDS011;15148;48.972;12.794;2023-07-16T22:49:47;4.13;;;3.72;;
27758;SDS011;15148;48.972;12.794;2023-07-16T22:54:49;3.95;;;3.63;;
27758;SDS011;15148;48.972;12.794;2023-07-16T22:59:51;5.10;;;3.80;;
27758;SDS011;15148;48.972;12.794;2023-07-16T23:04:53;4.20;;;3.80;;
27758;SDS011;15148;48.972;12.794;2023-07-16T23:09:55;4.38;;;3.60;;
27758;SDS011;15148;48.972;12.794;2023-07-16T23:14:57;4.30;;;3.90;;
27758;SDS011;15148;48.972;12.794;2023-07-16T23:19:59;4.15;;;3.83;;
27758;SDS011;15148;48.972;12.794;2023-07-16T23:25:01;4.05;;;3.75;;
27758;SDS011;15148;48.972;12.794;2023-07-16T23:30:06;3.90;;;3.60;;
27758;SDS011;15148;48.972;12.794;2023-07-16T23:35:09;4.30;;;3.90;;
27758;SDS011;15148;48.972;12.794;2023-07-16T23:40:10;4.00;;;3.70;;
27758;SDS011;15148;48.972;12.794;2023-07-16T23:45:13;4.00;;;3.65;;
27758;SDS011;15148;48.972;12.794;2023-07-16T23:50:16;4.43;;;4.03;;
27758;SDS011;15148;48.972;12.794;2023-07-16T23:55:18;5.65;;;4.00;;
